aviador You're here:

KEST Decoded Metar

ESTHERVILLE in IA, USA
Report Time2018-04-24 01:52:00
UTC Time2018-04-24 02:31:23
Flight Rules vfr VFR
Wind350° at 03 kt
W.Decomp.*RWY 34: 3.0 kt HW 0.2 kt RCW
RWY 06: 0.7 kt HW 2.9 kt LCW
W.Rank350° ranks 11
Current wind is below 350° avg. (10.7)
Visibility9999 m
Phenomena:N/A
Clouds:N/A
Expected CloudBase > 1,200 ft AGL from Temp-Dew spread
CeilingNone
Temp11°C (ISA -1)
Dew Point08°C (82% RH)
AAT9.5°C
QNH1020 hPa
Density Alt1,066 ft
Elevation1,316 ft
Report Wrong Elevation
Raw Report
KEST 240152Z AUTO 35003KT 10SM CLR 11/08 A3013 RMK AO2 SLP210
T01060078=

Extra information for KEST:More info

Metar Taf Metar & Taf Last 4 Metars F.Rules Stats Wind Profile Meteogram Temp Stats Airport Information Weather charts Add Link Nearby VenuesMetar ALERT Operation Metar Decoded Social comments

AIRNAV info for KEST